<?xml version="1.0" encoding="UTF-8" standalone="no" ?>
<gpx xmlns="http://www.topografix.com/GPX/1/1" xmlns:xsi="http://www.w3.org/2001/XMLSchema-instance" xsi:schemaLocation="http://www.topografix.com/GPX/1/1 http://www.topografix.com/GPX/1/1/gpx.xsd" version="1.1" creator="VisuGPX - https://www.visugpx.com">
  <metadata>
    <name>CO club</name>
  </metadata>
  <trk>
    <name><![CDATA[CO club_1]]></name>
    <trkseg>
      <trkpt lat="48.75093" lon="7.04166">
        <ele>325.9</ele>
        <time>2024-02-24T09:31:21Z</time>
      </trkpt>
      <trkpt lat="48.75094" lon="7.04163">
        <ele>325.8</ele>
        <time>2024-02-24T09:31:22Z</time>
      </trkpt>
      <trkpt lat="48.75095" lon="7.04154">
        <ele>325.5</ele>
        <time>2024-02-24T09:31:24Z</time>
      </trkpt>
      <trkpt lat="48.75082" lon="7.0413">
        <ele>324.4</ele>
        <time>2024-02-24T09:31:30Z</time>
      </trkpt>
      <trkpt lat="48.75066" lon="7.04113">
        <ele>323.4</ele>
        <time>2024-02-24T09:31:35Z</time>
      </trkpt>
      <trkpt lat="48.75052" lon="7.04094">
        <ele>322.2</ele>
        <time>2024-02-24T09:31:40Z</time>
      </trkpt>
      <trkpt lat="48.7504" lon="7.04068">
        <ele>320.8</ele>
        <time>2024-02-24T09:31:46Z</time>
      </trkpt>
      <trkpt lat="48.75025" lon="7.04051">
        <ele>319.5</ele>
        <time>2024-02-24T09:31:51Z</time>
      </trkpt>
      <trkpt lat="48.75007" lon="7.04036">
        <ele>317.8</ele>
        <time>2024-02-24T09:31:57Z</time>
      </trkpt>
      <trkpt lat="48.74989" lon="7.04028">
        <ele>317.7</ele>
        <time>2024-02-24T09:32:03Z</time>
      </trkpt>
      <trkpt lat="48.74974" lon="7.04012">
        <ele>317.6</ele>
        <time>2024-02-24T09:32:09Z</time>
      </trkpt>
      <trkpt lat="48.74963" lon="7.03985">
        <ele>317.5</ele>
        <time>2024-02-24T09:32:15Z</time>
      </trkpt>
      <trkpt lat="48.74954" lon="7.03959">
        <ele>317.4</ele>
        <time>2024-02-24T09:32:21Z</time>
      </trkpt>
      <trkpt lat="48.74942" lon="7.03933">
        <ele>317.2</ele>
        <time>2024-02-24T09:32:27Z</time>
      </trkpt>
      <trkpt lat="48.7493" lon="7.0391">
        <ele>317.2</ele>
        <time>2024-02-24T09:32:33Z</time>
      </trkpt>
      <trkpt lat="48.74919" lon="7.03885">
        <ele>317.2</ele>
        <time>2024-02-24T09:32:39Z</time>
      </trkpt>
      <trkpt lat="48.7491" lon="7.03859">
        <ele>317.1</ele>
        <time>2024-02-24T09:32:45Z</time>
      </trkpt>
      <trkpt lat="48.749" lon="7.03831">
        <ele>316.9</ele>
        <time>2024-02-24T09:32:51Z</time>
      </trkpt>
      <trkpt lat="48.74892" lon="7.03802">
        <ele>316.6</ele>
        <time>2024-02-24T09:32:57Z</time>
      </trkpt>
      <trkpt lat="48.74884" lon="7.03775">
        <ele>316.4</ele>
        <time>2024-02-24T09:33:03Z</time>
      </trkpt>
      <trkpt lat="48.74875" lon="7.03746">
        <ele>316.2</ele>
        <time>2024-02-24T09:33:10Z</time>
      </trkpt>
      <trkpt lat="48.74867" lon="7.03721">
        <ele>316.1</ele>
        <time>2024-02-24T09:33:16Z</time>
      </trkpt>
      <trkpt lat="48.74859" lon="7.03696">
        <ele>315.9</ele>
        <time>2024-02-24T09:33:22Z</time>
      </trkpt>
      <trkpt lat="48.74852" lon="7.03669">
        <ele>315.7</ele>
        <time>2024-02-24T09:33:28Z</time>
      </trkpt>
      <trkpt lat="48.74839" lon="7.03647">
        <ele>315.6</ele>
        <time>2024-02-24T09:33:36Z</time>
      </trkpt>
      <trkpt lat="48.74821" lon="7.03637">
        <ele>315.7</ele>
        <time>2024-02-24T09:33:41Z</time>
      </trkpt>
      <trkpt lat="48.74803" lon="7.03622">
        <ele>315.8</ele>
        <time>2024-02-24T09:33:46Z</time>
      </trkpt>
      <trkpt lat="48.74799" lon="7.03613">
        <ele>315.8</ele>
        <time>2024-02-24T09:33:47Z</time>
      </trkpt>
      <trkpt lat="48.74799" lon="7.03602">
        <ele>315.8</ele>
        <time>2024-02-24T09:33:49Z</time>
      </trkpt>
      <trkpt lat="48.748" lon="7.03598">
        <ele>315.8</ele>
        <time>2024-02-24T09:33:51Z</time>
      </trkpt>
      <trkpt lat="48.74978" lon="7.04011">
        <ele>317.6</ele>
        <time>2024-02-24T09:35:33Z</time>
      </trkpt>
      <trkpt lat="48.74992" lon="7.04028">
        <ele>317.7</ele>
        <time>2024-02-24T09:35:38Z</time>
      </trkpt>
      <trkpt lat="48.75003" lon="7.04036">
        <ele>317.8</ele>
        <time>2024-02-24T09:35:42Z</time>
      </trkpt>
      <trkpt lat="48.75023" lon="7.04049">
        <ele>319.2</ele>
        <time>2024-02-24T09:35:48Z</time>
      </trkpt>
      <trkpt lat="48.75037" lon="7.04068">
        <ele>320.4</ele>
        <time>2024-02-24T09:35:53Z</time>
      </trkpt>
      <trkpt lat="48.75052" lon="7.0409">
        <ele>321.7</ele>
        <time>2024-02-24T09:35:59Z</time>
      </trkpt>
      <trkpt lat="48.75067" lon="7.0411">
        <ele>322.9</ele>
        <time>2024-02-24T09:36:05Z</time>
      </trkpt>
      <trkpt lat="48.75081" lon="7.04129">
        <ele>323.8</ele>
        <time>2024-02-24T09:36:10Z</time>
      </trkpt>
      <trkpt lat="48.75095" lon="7.04148">
        <ele>324.7</ele>
        <time>2024-02-24T09:36:16Z</time>
      </trkpt>
      <trkpt lat="48.75096" lon="7.04155">
        <ele>324.9</ele>
        <time>2024-02-24T09:36:18Z</time>
      </trkpt>
      <trkpt lat="48.75094" lon="7.04161">
        <ele>325.1</ele>
        <time>2024-02-24T09:36:20Z</time>
      </trkpt>
      <trkpt lat="48.75094" lon="7.04161">
        <ele>325.1</ele>
        <time>2024-02-24T09:42:02Z</time>
      </trkpt>
      <trkpt lat="48.75098" lon="7.04165">
        <ele>325.3</ele>
        <time>2024-02-24T09:42:04Z</time>
      </trkpt>
      <trkpt lat="48.75105" lon="7.0413">
        <ele>326.3</ele>
        <time>2024-02-24T09:42:13Z</time>
      </trkpt>
      <trkpt lat="48.75103" lon="7.04124">
        <ele>326.1</ele>
        <time>2024-02-24T09:42:15Z</time>
      </trkpt>
      <trkpt lat="48.75091" lon="7.04103">
        <ele>325.2</ele>
        <time>2024-02-24T09:42:21Z</time>
      </trkpt>
      <trkpt lat="48.75078" lon="7.04084">
        <ele>324.4</ele>
        <time>2024-02-24T09:42:26Z</time>
      </trkpt>
      <trkpt lat="48.75064" lon="7.04064">
        <ele>323.5</ele>
        <time>2024-02-24T09:42:32Z</time>
      </trkpt>
      <trkpt lat="48.75051" lon="7.04043">
        <ele>322.6</ele>
        <time>2024-02-24T09:42:38Z</time>
      </trkpt>
      <trkpt lat="48.75032" lon="7.04032">
        <ele>320.7</ele>
        <time>2024-02-24T09:42:45Z</time>
      </trkpt>
      <trkpt lat="48.75024" lon="7.04041">
        <ele>319.8</ele>
        <time>2024-02-24T09:42:50Z</time>
      </trkpt>
      <trkpt lat="48.75036" lon="7.04066">
        <ele>322.6</ele>
        <time>2024-02-24T09:42:57Z</time>
      </trkpt>
      <trkpt lat="48.75052" lon="7.04086">
        <ele>323.5</ele>
        <time>2024-02-24T09:43:05Z</time>
      </trkpt>
      <trkpt lat="48.75066" lon="7.04105">
        <ele>324.3</ele>
        <time>2024-02-24T09:43:13Z</time>
      </trkpt>
      <trkpt lat="48.75079" lon="7.04124">
        <ele>325.1</ele>
        <time>2024-02-24T09:43:21Z</time>
      </trkpt>
      <trkpt lat="48.75093" lon="7.0414">
        <ele>325.9</ele>
        <time>2024-02-24T09:43:29Z</time>
      </trkpt>
      <trkpt lat="48.75103" lon="7.04143">
        <ele>326.3</ele>
        <time>2024-02-24T09:43:34Z</time>
      </trkpt>
      <trkpt lat="48.75105" lon="7.04127">
        <ele>326.1</ele>
        <time>2024-02-24T09:43:39Z</time>
      </trkpt>
      <trkpt lat="48.75091" lon="7.04108">
        <ele>325.2</ele>
        <time>2024-02-24T09:43:44Z</time>
      </trkpt>
      <trkpt lat="48.75078" lon="7.04088">
        <ele>324.4</ele>
        <time>2024-02-24T09:43:49Z</time>
      </trkpt>
      <trkpt lat="48.75064" lon="7.04069">
        <ele>323.6</ele>
        <time>2024-02-24T09:43:54Z</time>
      </trkpt>
      <trkpt lat="48.75051" lon="7.0405">
        <ele>322.7</ele>
        <time>2024-02-24T09:43:59Z</time>
      </trkpt>
      <trkpt lat="48.75034" lon="7.04037">
        <ele>321.1</ele>
        <time>2024-02-24T09:44:05Z</time>
      </trkpt>
      <trkpt lat="48.75027" lon="7.04041">
        <ele>320.2</ele>
        <time>2024-02-24T09:44:09Z</time>
      </trkpt>
      <trkpt lat="48.7504" lon="7.04064">
        <ele>322.7</ele>
        <time>2024-02-24T09:44:15Z</time>
      </trkpt>
      <trkpt lat="48.75055" lon="7.04084">
        <ele>323.5</ele>
        <time>2024-02-24T09:44:21Z</time>
      </trkpt>
      <trkpt lat="48.75069" lon="7.04103">
        <ele>324.2</ele>
        <time>2024-02-24T09:44:27Z</time>
      </trkpt>
      <trkpt lat="48.75085" lon="7.04125">
        <ele>325.1</ele>
        <time>2024-02-24T09:44:33Z</time>
      </trkpt>
      <trkpt lat="48.75099" lon="7.04143">
        <ele>325.9</ele>
        <time>2024-02-24T09:44:39Z</time>
      </trkpt>
      <trkpt lat="48.75104" lon="7.04147">
        <ele>326.1</ele>
        <time>2024-02-24T09:44:43Z</time>
      </trkpt>
      <trkpt lat="48.751" lon="7.04145">
        <ele>326.3</ele>
        <time>2024-02-24T09:45:56Z</time>
      </trkpt>
      <trkpt lat="48.75116" lon="7.04127">
        <ele>326.4</ele>
        <time>2024-02-24T09:46:06Z</time>
      </trkpt>
      <trkpt lat="48.75132" lon="7.04108">
        <ele>326.4</ele>
        <time>2024-02-24T09:46:11Z</time>
      </trkpt>
      <trkpt lat="48.75148" lon="7.04087">
        <ele>326.1</ele>
        <time>2024-02-24T09:46:16Z</time>
      </trkpt>
      <trkpt lat="48.75159" lon="7.04061">
        <ele>325.5</ele>
        <time>2024-02-24T09:46:21Z</time>
      </trkpt>
      <trkpt lat="48.75167" lon="7.04046">
        <ele>325</ele>
        <time>2024-02-24T09:46:24Z</time>
      </trkpt>
      <trkpt lat="48.75181" lon="7.04025">
        <ele>324.3</ele>
        <time>2024-02-24T09:46:29Z</time>
      </trkpt>
      <trkpt lat="48.75194" lon="7.04006">
        <ele>323.7</ele>
        <time>2024-02-24T09:46:34Z</time>
      </trkpt>
      <trkpt lat="48.7521" lon="7.03991">
        <ele>322.8</ele>
        <time>2024-02-24T09:46:39Z</time>
      </trkpt>
      <trkpt lat="48.75223" lon="7.03971">
        <ele>322</ele>
        <time>2024-02-24T09:46:45Z</time>
      </trkpt>
      <trkpt lat="48.75226" lon="7.03968">
        <ele>321.7</ele>
        <time>2024-02-24T09:46:47Z</time>
      </trkpt>
      <trkpt lat="48.75229" lon="7.0397">
        <ele>321.6</ele>
        <time>2024-02-24T09:46:49Z</time>
      </trkpt>
      <trkpt lat="48.75241" lon="7.03994">
        <ele>322.3</ele>
        <time>2024-02-24T09:46:56Z</time>
      </trkpt>
      <trkpt lat="48.75255" lon="7.04013">
        <ele>322.7</ele>
        <time>2024-02-24T09:47:01Z</time>
      </trkpt>
      <trkpt lat="48.7527" lon="7.04032">
        <ele>323.1</ele>
        <time>2024-02-24T09:47:07Z</time>
      </trkpt>
      <trkpt lat="48.75277" lon="7.04054">
        <ele>324.3</ele>
        <time>2024-02-24T09:47:16Z</time>
      </trkpt>
      <trkpt lat="48.7528" lon="7.04056">
        <ele>324.3</ele>
        <time>2024-02-24T09:47:18Z</time>
      </trkpt>
      <trkpt lat="48.75293" lon="7.04078">
        <ele>325.3</ele>
        <time>2024-02-24T09:47:24Z</time>
      </trkpt>
      <trkpt lat="48.75306" lon="7.041">
        <ele>325.6</ele>
        <time>2024-02-24T09:47:31Z</time>
      </trkpt>
      <trkpt lat="48.75318" lon="7.04123">
        <ele>326</ele>
        <time>2024-02-24T09:47:38Z</time>
      </trkpt>
      <trkpt lat="48.75331" lon="7.04144">
        <ele>326.3</ele>
        <time>2024-02-24T09:47:44Z</time>
      </trkpt>
      <trkpt lat="48.7533" lon="7.0417">
        <ele>327.1</ele>
        <time>2024-02-24T09:47:50Z</time>
      </trkpt>
      <trkpt lat="48.75316" lon="7.04191">
        <ele>328.1</ele>
        <time>2024-02-24T09:47:57Z</time>
      </trkpt>
      <trkpt lat="48.75304" lon="7.04213">
        <ele>328.9</ele>
        <time>2024-02-24T09:48:03Z</time>
      </trkpt>
      <trkpt lat="48.75288" lon="7.04233">
        <ele>329.6</ele>
        <time>2024-02-24T09:48:10Z</time>
      </trkpt>
      <trkpt lat="48.75271" lon="7.0425">
        <ele>330.2</ele>
        <time>2024-02-24T09:48:17Z</time>
      </trkpt>
      <trkpt lat="48.75269" lon="7.0425">
        <ele>330.2</ele>
        <time>2024-02-24T09:48:18Z</time>
      </trkpt>
      <trkpt lat="48.75256" lon="7.04231">
        <ele>330.4</ele>
        <time>2024-02-24T09:48:28Z</time>
      </trkpt>
      <trkpt lat="48.75257" lon="7.04202">
        <ele>330.3</ele>
        <time>2024-02-24T09:48:41Z</time>
      </trkpt>
      <trkpt lat="48.75257" lon="7.04196">
        <ele>330.3</ele>
        <time>2024-02-24T09:48:46Z</time>
      </trkpt>
      <trkpt lat="48.75262" lon="7.04222">
        <ele>330.2</ele>
        <time>2024-02-24T09:48:59Z</time>
      </trkpt>
      <trkpt lat="48.75268" lon="7.04249">
        <ele>330.1</ele>
        <time>2024-02-24T09:49:11Z</time>
      </trkpt>
      <trkpt lat="48.75268" lon="7.04259">
        <ele>330.2</ele>
        <time>2024-02-24T09:49:13Z</time>
      </trkpt>
      <trkpt lat="48.75257" lon="7.04281">
        <ele>330.7</ele>
        <time>2024-02-24T09:49:19Z</time>
      </trkpt>
      <trkpt lat="48.75243" lon="7.04303">
        <ele>331.2</ele>
        <time>2024-02-24T09:49:25Z</time>
      </trkpt>
      <trkpt lat="48.7523" lon="7.04324">
        <ele>331.5</ele>
        <time>2024-02-24T09:49:30Z</time>
      </trkpt>
      <trkpt lat="48.75227" lon="7.04334">
        <ele>331.6</ele>
        <time>2024-02-24T09:49:36Z</time>
      </trkpt>
      <trkpt lat="48.75228" lon="7.04336">
        <ele>331.6</ele>
        <time>2024-02-24T09:49:38Z</time>
      </trkpt>
      <trkpt lat="48.75229" lon="7.04348">
        <ele>331.6</ele>
        <time>2024-02-24T09:49:46Z</time>
      </trkpt>
      <trkpt lat="48.75242" lon="7.04368">
        <ele>331.7</ele>
        <time>2024-02-24T09:50:02Z</time>
      </trkpt>
      <trkpt lat="48.75246" lon="7.04379">
        <ele>331.8</ele>
        <time>2024-02-24T09:50:07Z</time>
      </trkpt>
      <trkpt lat="48.7526" lon="7.04399">
        <ele>331.9</ele>
        <time>2024-02-24T09:50:15Z</time>
      </trkpt>
      <trkpt lat="48.75272" lon="7.04419">
        <ele>332.4</ele>
        <time>2024-02-24T09:50:24Z</time>
      </trkpt>
      <trkpt lat="48.75285" lon="7.0444">
        <ele>332.6</ele>
        <time>2024-02-24T09:50:31Z</time>
      </trkpt>
      <trkpt lat="48.75286" lon="7.04444">
        <ele>332.6</ele>
        <time>2024-02-24T09:50:32Z</time>
      </trkpt>
      <trkpt lat="48.75278" lon="7.0447">
        <ele>332.8</ele>
        <time>2024-02-24T09:50:40Z</time>
      </trkpt>
      <trkpt lat="48.75275" lon="7.04494">
        <ele>332.9</ele>
        <time>2024-02-24T09:50:48Z</time>
      </trkpt>
      <trkpt lat="48.75274" lon="7.04523">
        <ele>333.1</ele>
        <time>2024-02-24T09:50:58Z</time>
      </trkpt>
      <trkpt lat="48.75271" lon="7.04543">
        <ele>333.1</ele>
        <time>2024-02-24T09:51:04Z</time>
      </trkpt>
      <trkpt lat="48.75254" lon="7.04548">
        <ele>333.5</ele>
        <time>2024-02-24T09:51:20Z</time>
      </trkpt>
      <trkpt lat="48.75242" lon="7.04553">
        <ele>333.4</ele>
        <time>2024-02-24T09:51:25Z</time>
      </trkpt>
      <trkpt lat="48.75226" lon="7.04535">
        <ele>332.5</ele>
        <time>2024-02-24T09:51:31Z</time>
      </trkpt>
      <trkpt lat="48.75211" lon="7.04514">
        <ele>331.2</ele>
        <time>2024-02-24T09:51:37Z</time>
      </trkpt>
      <trkpt lat="48.75198" lon="7.04494">
        <ele>331.3</ele>
        <time>2024-02-24T09:51:43Z</time>
      </trkpt>
      <trkpt lat="48.75181" lon="7.04479">
        <ele>330.8</ele>
        <time>2024-02-24T09:51:52Z</time>
      </trkpt>
      <trkpt lat="48.75174" lon="7.04454">
        <ele>331.5</ele>
        <time>2024-02-24T09:52:00Z</time>
      </trkpt>
      <trkpt lat="48.75172" lon="7.04447">
        <ele>331.6</ele>
        <time>2024-02-24T09:52:02Z</time>
      </trkpt>
      <trkpt lat="48.75153" lon="7.04434">
        <ele>331.4</ele>
        <time>2024-02-24T09:52:09Z</time>
      </trkpt>
      <trkpt lat="48.75141" lon="7.04417">
        <ele>330.5</ele>
        <time>2024-02-24T09:52:18Z</time>
      </trkpt>
      <trkpt lat="48.75147" lon="7.04427">
        <ele>330.9</ele>
        <time>2024-02-24T09:52:23Z</time>
      </trkpt>
      <trkpt lat="48.7515" lon="7.0443">
        <ele>331.2</ele>
        <time>2024-02-24T09:52:25Z</time>
      </trkpt>
      <trkpt lat="48.75163" lon="7.0441">
        <ele>332.6</ele>
        <time>2024-02-24T09:52:32Z</time>
      </trkpt>
      <trkpt lat="48.75162" lon="7.04404">
        <ele>332.5</ele>
        <time>2024-02-24T09:52:34Z</time>
      </trkpt>
      <trkpt lat="48.75148" lon="7.04383">
        <ele>332.6</ele>
        <time>2024-02-24T09:52:40Z</time>
      </trkpt>
      <trkpt lat="48.75136" lon="7.04369">
        <ele>332.4</ele>
        <time>2024-02-24T09:52:46Z</time>
      </trkpt>
      <trkpt lat="48.75136" lon="7.0437">
        <ele>332.3</ele>
        <time>2024-02-24T09:52:49Z</time>
      </trkpt>
      <trkpt lat="48.75136" lon="7.04372">
        <ele>332.3</ele>
        <time>2024-02-24T09:52:54Z</time>
      </trkpt>
      <trkpt lat="48.75135" lon="7.0436">
        <ele>332.3</ele>
        <time>2024-02-24T09:53:23Z</time>
      </trkpt>
      <trkpt lat="48.7512" lon="7.04343">
        <ele>332</ele>
        <time>2024-02-24T09:53:29Z</time>
      </trkpt>
      <trkpt lat="48.75105" lon="7.04326">
        <ele>331.8</ele>
        <time>2024-02-24T09:53:34Z</time>
      </trkpt>
      <trkpt lat="48.75089" lon="7.04308">
        <ele>331.1</ele>
        <time>2024-02-24T09:53:40Z</time>
      </trkpt>
      <trkpt lat="48.75074" lon="7.04285">
        <ele>330.3</ele>
        <time>2024-02-24T09:53:46Z</time>
      </trkpt>
      <trkpt lat="48.75057" lon="7.04267">
        <ele>329.1</ele>
        <time>2024-02-24T09:53:51Z</time>
      </trkpt>
      <trkpt lat="48.75041" lon="7.04251">
        <ele>327.8</ele>
        <time>2024-02-24T09:53:56Z</time>
      </trkpt>
      <trkpt lat="48.75037" lon="7.04233">
        <ele>327.3</ele>
        <time>2024-02-24T09:54:01Z</time>
      </trkpt>
      <trkpt lat="48.75053" lon="7.04212">
        <ele>326.5</ele>
        <time>2024-02-24T09:54:07Z</time>
      </trkpt>
      <trkpt lat="48.75067" lon="7.04192">
        <ele>325.7</ele>
        <time>2024-02-24T09:54:12Z</time>
      </trkpt>
      <trkpt lat="48.75081" lon="7.04169">
        <ele>325.3</ele>
        <time>2024-02-24T09:54:18Z</time>
      </trkpt>
      <trkpt lat="48.75095" lon="7.04148">
        <ele>325.4</ele>
        <time>2024-02-24T09:54:25Z</time>
      </trkpt>
      <trkpt lat="48.75097" lon="7.04147">
        <ele>325.5</ele>
        <time>2024-02-24T09:54:26Z</time>
      </trkpt>
      <trkpt lat="48.75104" lon="7.04151">
        <ele>326</ele>
        <time>2024-02-24T10:07:15Z</time>
      </trkpt>
      <trkpt lat="48.75105" lon="7.04151">
        <ele>326</ele>
        <time>2024-02-24T10:07:16Z</time>
      </trkpt>
      <trkpt lat="48.75107" lon="7.04142">
        <ele>326.3</ele>
        <time>2024-02-24T10:07:24Z</time>
      </trkpt>
      <trkpt lat="48.75105" lon="7.04117">
        <ele>325.6</ele>
        <time>2024-02-24T10:07:29Z</time>
      </trkpt>
      <trkpt lat="48.75089" lon="7.04095">
        <ele>324.7</ele>
        <time>2024-02-24T10:07:33Z</time>
      </trkpt>
      <trkpt lat="48.75073" lon="7.04075">
        <ele>323.9</ele>
        <time>2024-02-24T10:07:37Z</time>
      </trkpt>
      <trkpt lat="48.75056" lon="7.04055">
        <ele>323</ele>
        <time>2024-02-24T10:07:41Z</time>
      </trkpt>
      <trkpt lat="48.7505" lon="7.04044">
        <ele>322.6</ele>
        <time>2024-02-24T10:07:43Z</time>
      </trkpt>
      <trkpt lat="48.75048" lon="7.0403">
        <ele>322.4</ele>
        <time>2024-02-24T10:07:45Z</time>
      </trkpt>
      <trkpt lat="48.75053" lon="7.04019">
        <ele>322.6</ele>
        <time>2024-02-24T10:07:47Z</time>
      </trkpt>
      <trkpt lat="48.7506" lon="7.0401">
        <ele>322.8</ele>
        <time>2024-02-24T10:07:49Z</time>
      </trkpt>
      <trkpt lat="48.75075" lon="7.03992">
        <ele>322.9</ele>
        <time>2024-02-24T10:07:53Z</time>
      </trkpt>
      <trkpt lat="48.75092" lon="7.03971">
        <ele>322.7</ele>
        <time>2024-02-24T10:07:58Z</time>
      </trkpt>
      <trkpt lat="48.75108" lon="7.03949">
        <ele>322.4</ele>
        <time>2024-02-24T10:08:03Z</time>
      </trkpt>
      <trkpt lat="48.75115" lon="7.03944">
        <ele>322.5</ele>
        <time>2024-02-24T10:08:05Z</time>
      </trkpt>
      <trkpt lat="48.75124" lon="7.03945">
        <ele>322.7</ele>
        <time>2024-02-24T10:08:07Z</time>
      </trkpt>
      <trkpt lat="48.75132" lon="7.03951">
        <ele>322.8</ele>
        <time>2024-02-24T10:08:09Z</time>
      </trkpt>
      <trkpt lat="48.7514" lon="7.03959">
        <ele>323</ele>
        <time>2024-02-24T10:08:12Z</time>
      </trkpt>
      <trkpt lat="48.75143" lon="7.0396">
        <ele>323</ele>
        <time>2024-02-24T10:08:14Z</time>
      </trkpt>
      <trkpt lat="48.75145" lon="7.03961">
        <ele>322.9</ele>
        <time>2024-02-24T10:08:18Z</time>
      </trkpt>
      <trkpt lat="48.75145" lon="7.03961">
        <ele>322.9</ele>
        <time>2024-02-24T10:08:20Z</time>
      </trkpt>
      <trkpt lat="48.75147" lon="7.03958">
        <ele>322.9</ele>
        <time>2024-02-24T10:08:23Z</time>
      </trkpt>
      <trkpt lat="48.75154" lon="7.03958">
        <ele>322.7</ele>
        <time>2024-02-24T10:08:29Z</time>
      </trkpt>
      <trkpt lat="48.75157" lon="7.03961">
        <ele>322.7</ele>
        <time>2024-02-24T10:08:34Z</time>
      </trkpt>
      <trkpt lat="48.75159" lon="7.03962">
        <ele>322.6</ele>
        <time>2024-02-24T10:08:36Z</time>
      </trkpt>
      <trkpt lat="48.75163" lon="7.03961">
        <ele>322.3</ele>
        <time>2024-02-24T10:08:39Z</time>
      </trkpt>
      <trkpt lat="48.75169" lon="7.03947">
        <ele>321.8</ele>
        <time>2024-02-24T10:08:48Z</time>
      </trkpt>
      <trkpt lat="48.75184" lon="7.03969">
        <ele>321.9</ele>
        <time>2024-02-24T10:08:56Z</time>
      </trkpt>
      <trkpt lat="48.75196" lon="7.0398">
        <ele>322</ele>
        <time>2024-02-24T10:09:01Z</time>
      </trkpt>
      <trkpt lat="48.75202" lon="7.03979">
        <ele>321.8</ele>
        <time>2024-02-24T10:09:04Z</time>
      </trkpt>
      <trkpt lat="48.75218" lon="7.03993">
        <ele>322.1</ele>
        <time>2024-02-24T10:09:10Z</time>
      </trkpt>
      <trkpt lat="48.75234" lon="7.03977">
        <ele>321.1</ele>
        <time>2024-02-24T10:09:17Z</time>
      </trkpt>
      <trkpt lat="48.7525" lon="7.03962">
        <ele>320.2</ele>
        <time>2024-02-24T10:09:23Z</time>
      </trkpt>
      <trkpt lat="48.75269" lon="7.03957">
        <ele>319.1</ele>
        <time>2024-02-24T10:09:33Z</time>
      </trkpt>
      <trkpt lat="48.75286" lon="7.03967">
        <ele>319.3</ele>
        <time>2024-02-24T10:09:41Z</time>
      </trkpt>
      <trkpt lat="48.75293" lon="7.03971">
        <ele>319.4</ele>
        <time>2024-02-24T10:09:47Z</time>
      </trkpt>
      <trkpt lat="48.75308" lon="7.0399">
        <ele>320</ele>
        <time>2024-02-24T10:09:55Z</time>
      </trkpt>
      <trkpt lat="48.75323" lon="7.04009">
        <ele>320.7</ele>
        <time>2024-02-24T10:10:03Z</time>
      </trkpt>
      <trkpt lat="48.75335" lon="7.0403">
        <ele>321.3</ele>
        <time>2024-02-24T10:10:12Z</time>
      </trkpt>
      <trkpt lat="48.7534" lon="7.04043">
        <ele>321.8</ele>
        <time>2024-02-24T10:10:19Z</time>
      </trkpt>
      <trkpt lat="48.75346" lon="7.04052">
        <ele>322.4</ele>
        <time>2024-02-24T10:10:24Z</time>
      </trkpt>
      <trkpt lat="48.75359" lon="7.04074">
        <ele>322.9</ele>
        <time>2024-02-24T10:10:31Z</time>
      </trkpt>
      <trkpt lat="48.75365" lon="7.04078">
        <ele>323</ele>
        <time>2024-02-24T10:10:35Z</time>
      </trkpt>
      <trkpt lat="48.75372" lon="7.0408">
        <ele>322.9</ele>
        <time>2024-02-24T10:10:40Z</time>
      </trkpt>
      <trkpt lat="48.7538" lon="7.04091">
        <ele>323.3</ele>
        <time>2024-02-24T10:10:50Z</time>
      </trkpt>
      <trkpt lat="48.7538" lon="7.04092">
        <ele>323.3</ele>
        <time>2024-02-24T10:10:52Z</time>
      </trkpt>
      <trkpt lat="48.75391" lon="7.04084">
        <ele>323</ele>
        <time>2024-02-24T10:11:00Z</time>
      </trkpt>
      <trkpt lat="48.75406" lon="7.04106">
        <ele>323.9</ele>
        <time>2024-02-24T10:11:06Z</time>
      </trkpt>
      <trkpt lat="48.75417" lon="7.04117">
        <ele>324.2</ele>
        <time>2024-02-24T10:11:11Z</time>
      </trkpt>
      <trkpt lat="48.75433" lon="7.04101">
        <ele>324.2</ele>
        <time>2024-02-24T10:11:16Z</time>
      </trkpt>
      <trkpt lat="48.75448" lon="7.04083">
        <ele>324</ele>
        <time>2024-02-24T10:11:21Z</time>
      </trkpt>
      <trkpt lat="48.75465" lon="7.04071">
        <ele>323.8</ele>
        <time>2024-02-24T10:11:28Z</time>
      </trkpt>
      <trkpt lat="48.75475" lon="7.04071">
        <ele>323.9</ele>
        <time>2024-02-24T10:11:33Z</time>
      </trkpt>
      <trkpt lat="48.75491" lon="7.04053">
        <ele>323.3</ele>
        <time>2024-02-24T10:11:38Z</time>
      </trkpt>
      <trkpt lat="48.75504" lon="7.04052">
        <ele>323.1</ele>
        <time>2024-02-24T10:11:48Z</time>
      </trkpt>
      <trkpt lat="48.75497" lon="7.04075">
        <ele>324</ele>
        <time>2024-02-24T10:11:57Z</time>
      </trkpt>
      <trkpt lat="48.75479" lon="7.0409">
        <ele>324.5</ele>
        <time>2024-02-24T10:12:02Z</time>
      </trkpt>
      <trkpt lat="48.75466" lon="7.0411">
        <ele>324.9</ele>
        <time>2024-02-24T10:12:07Z</time>
      </trkpt>
      <trkpt lat="48.75452" lon="7.04136">
        <ele>325.2</ele>
        <time>2024-02-24T10:12:12Z</time>
      </trkpt>
      <trkpt lat="48.75438" lon="7.04159">
        <ele>325.3</ele>
        <time>2024-02-24T10:12:17Z</time>
      </trkpt>
      <trkpt lat="48.75426" lon="7.04183">
        <ele>325.4</ele>
        <time>2024-02-24T10:12:22Z</time>
      </trkpt>
      <trkpt lat="48.75413" lon="7.04209">
        <ele>325.7</ele>
        <time>2024-02-24T10:12:27Z</time>
      </trkpt>
      <trkpt lat="48.754" lon="7.04229">
        <ele>326.1</ele>
        <time>2024-02-24T10:12:32Z</time>
      </trkpt>
      <trkpt lat="48.75385" lon="7.04251">
        <ele>326.5</ele>
        <time>2024-02-24T10:12:37Z</time>
      </trkpt>
      <trkpt lat="48.75371" lon="7.04271">
        <ele>326.9</ele>
        <time>2024-02-24T10:12:42Z</time>
      </trkpt>
      <trkpt lat="48.75357" lon="7.0429">
        <ele>327.4</ele>
        <time>2024-02-24T10:12:47Z</time>
      </trkpt>
      <trkpt lat="48.75345" lon="7.04318">
        <ele>328</ele>
        <time>2024-02-24T10:12:52Z</time>
      </trkpt>
      <trkpt lat="48.75331" lon="7.04336">
        <ele>329</ele>
        <time>2024-02-24T10:12:57Z</time>
      </trkpt>
      <trkpt lat="48.75316" lon="7.04352">
        <ele>330</ele>
        <time>2024-02-24T10:13:02Z</time>
      </trkpt>
      <trkpt lat="48.75309" lon="7.04378">
        <ele>331</ele>
        <time>2024-02-24T10:13:09Z</time>
      </trkpt>
      <trkpt lat="48.75313" lon="7.04408">
        <ele>331.9</ele>
        <time>2024-02-24T10:13:14Z</time>
      </trkpt>
      <trkpt lat="48.75298" lon="7.04426">
        <ele>332.3</ele>
        <time>2024-02-24T10:13:22Z</time>
      </trkpt>
      <trkpt lat="48.75291" lon="7.04433">
        <ele>332.3</ele>
        <time>2024-02-24T10:13:25Z</time>
      </trkpt>
      <trkpt lat="48.75281" lon="7.04457">
        <ele>332.5</ele>
        <time>2024-02-24T10:13:32Z</time>
      </trkpt>
      <trkpt lat="48.75281" lon="7.0446">
        <ele>332.5</ele>
        <time>2024-02-24T10:13:33Z</time>
      </trkpt>
      <trkpt lat="48.75277" lon="7.04489">
        <ele>332.6</ele>
        <time>2024-02-24T10:13:43Z</time>
      </trkpt>
      <trkpt lat="48.7528" lon="7.0452">
        <ele>332.8</ele>
        <time>2024-02-24T10:13:50Z</time>
      </trkpt>
      <trkpt lat="48.75279" lon="7.04536">
        <ele>332.8</ele>
        <time>2024-02-24T10:13:56Z</time>
      </trkpt>
      <trkpt lat="48.7528" lon="7.04508">
        <ele>332.7</ele>
        <time>2024-02-24T10:14:07Z</time>
      </trkpt>
      <trkpt lat="48.75264" lon="7.04486">
        <ele>332.7</ele>
        <time>2024-02-24T10:14:13Z</time>
      </trkpt>
      <trkpt lat="48.75248" lon="7.04465">
        <ele>332.5</ele>
        <time>2024-02-24T10:14:18Z</time>
      </trkpt>
      <trkpt lat="48.75237" lon="7.04442">
        <ele>332.2</ele>
        <time>2024-02-24T10:14:24Z</time>
      </trkpt>
      <trkpt lat="48.75248" lon="7.04415">
        <ele>331.9</ele>
        <time>2024-02-24T10:14:29Z</time>
      </trkpt>
      <trkpt lat="48.7526" lon="7.04394">
        <ele>331.6</ele>
        <time>2024-02-24T10:14:33Z</time>
      </trkpt>
      <trkpt lat="48.75273" lon="7.04374">
        <ele>331.3</ele>
        <time>2024-02-24T10:14:37Z</time>
      </trkpt>
      <trkpt lat="48.75277" lon="7.04349">
        <ele>330.8</ele>
        <time>2024-02-24T10:14:43Z</time>
      </trkpt>
      <trkpt lat="48.75272" lon="7.04344">
        <ele>330.8</ele>
        <time>2024-02-24T10:14:45Z</time>
      </trkpt>
      <trkpt lat="48.75253" lon="7.04337">
        <ele>331</ele>
        <time>2024-02-24T10:14:50Z</time>
      </trkpt>
      <trkpt lat="48.75238" lon="7.0432">
        <ele>331</ele>
        <time>2024-02-24T10:14:55Z</time>
      </trkpt>
      <trkpt lat="48.75224" lon="7.04302">
        <ele>331.1</ele>
        <time>2024-02-24T10:15:00Z</time>
      </trkpt>
      <trkpt lat="48.75209" lon="7.0428">
        <ele>331.2</ele>
        <time>2024-02-24T10:15:04Z</time>
      </trkpt>
      <trkpt lat="48.75192" lon="7.04257">
        <ele>331.2</ele>
        <time>2024-02-24T10:15:08Z</time>
      </trkpt>
      <trkpt lat="48.7518" lon="7.04236">
        <ele>331</ele>
        <time>2024-02-24T10:15:12Z</time>
      </trkpt>
      <trkpt lat="48.75166" lon="7.04218">
        <ele>330.6</ele>
        <time>2024-02-24T10:15:16Z</time>
      </trkpt>
      <trkpt lat="48.75151" lon="7.04199">
        <ele>329.9</ele>
        <time>2024-02-24T10:15:20Z</time>
      </trkpt>
      <trkpt lat="48.75136" lon="7.04177">
        <ele>328.6</ele>
        <time>2024-02-24T10:15:24Z</time>
      </trkpt>
      <trkpt lat="48.75122" lon="7.04157">
        <ele>327.1</ele>
        <time>2024-02-24T10:15:28Z</time>
      </trkpt>
      <trkpt lat="48.75112" lon="7.04146">
        <ele>326.3</ele>
        <time>2024-02-24T10:15:31Z</time>
      </trkpt>
      <trkpt lat="48.75105" lon="7.04146">
        <ele>326</ele>
        <time>2024-02-24T10:15:33Z</time>
      </trkpt>
      <trkpt lat="48.75098" lon="7.04155">
        <ele>325.9</ele>
        <time>2024-02-24T10:15:40Z</time>
      </trkpt>
      <trkpt lat="48.75103" lon="7.04153">
        <ele>326</ele>
        <time>2024-02-24T10:23:06Z</time>
      </trkpt>
      <trkpt lat="48.75103" lon="7.04153">
        <ele>326</ele>
        <time>2024-02-24T10:23:07Z</time>
      </trkpt>
      <trkpt lat="48.75117" lon="7.04132">
        <ele>326.4</ele>
        <time>2024-02-24T10:23:17Z</time>
      </trkpt>
      <trkpt lat="48.75134" lon="7.04111">
        <ele>326.4</ele>
        <time>2024-02-24T10:23:22Z</time>
      </trkpt>
      <trkpt lat="48.7515" lon="7.04095">
        <ele>326.1</ele>
        <time>2024-02-24T10:23:26Z</time>
      </trkpt>
      <trkpt lat="48.75161" lon="7.04072">
        <ele>325.9</ele>
        <time>2024-02-24T10:23:31Z</time>
      </trkpt>
      <trkpt lat="48.75163" lon="7.0406">
        <ele>325.9</ele>
        <time>2024-02-24T10:23:35Z</time>
      </trkpt>
      <trkpt lat="48.75151" lon="7.04037">
        <ele>326.1</ele>
        <time>2024-02-24T10:23:41Z</time>
      </trkpt>
      <trkpt lat="48.75148" lon="7.04031">
        <ele>326.1</ele>
        <time>2024-02-24T10:23:44Z</time>
      </trkpt>
      <trkpt lat="48.75158" lon="7.04032">
        <ele>326.2</ele>
        <time>2024-02-24T10:24:01Z</time>
      </trkpt>
      <trkpt lat="48.75164" lon="7.04055">
        <ele>326.3</ele>
        <time>2024-02-24T10:24:06Z</time>
      </trkpt>
      <trkpt lat="48.75159" lon="7.04064">
        <ele>326.4</ele>
        <time>2024-02-24T10:24:08Z</time>
      </trkpt>
      <trkpt lat="48.75146" lon="7.0409">
        <ele>326.4</ele>
        <time>2024-02-24T10:24:13Z</time>
      </trkpt>
      <trkpt lat="48.75134" lon="7.04108">
        <ele>326.4</ele>
        <time>2024-02-24T10:24:17Z</time>
      </trkpt>
      <trkpt lat="48.75121" lon="7.04125">
        <ele>326.4</ele>
        <time>2024-02-24T10:24:21Z</time>
      </trkpt>
      <trkpt lat="48.75119" lon="7.04137">
        <ele>326.6</ele>
        <time>2024-02-24T10:24:23Z</time>
      </trkpt>
      <trkpt lat="48.75121" lon="7.04148">
        <ele>327.2</ele>
        <time>2024-02-24T10:24:25Z</time>
      </trkpt>
      <trkpt lat="48.75127" lon="7.04159">
        <ele>327.7</ele>
        <time>2024-02-24T10:24:27Z</time>
      </trkpt>
      <trkpt lat="48.75141" lon="7.04177">
        <ele>329.1</ele>
        <time>2024-02-24T10:24:31Z</time>
      </trkpt>
      <trkpt lat="48.75155" lon="7.04195">
        <ele>330.1</ele>
        <time>2024-02-24T10:24:35Z</time>
      </trkpt>
      <trkpt lat="48.75171" lon="7.04217">
        <ele>330.9</ele>
        <time>2024-02-24T10:24:40Z</time>
      </trkpt>
      <trkpt lat="48.75186" lon="7.0424">
        <ele>331.4</ele>
        <time>2024-02-24T10:24:45Z</time>
      </trkpt>
      <trkpt lat="48.75198" lon="7.04261">
        <ele>331.5</ele>
        <time>2024-02-24T10:24:50Z</time>
      </trkpt>
      <trkpt lat="48.75211" lon="7.04282">
        <ele>331.5</ele>
        <time>2024-02-24T10:24:55Z</time>
      </trkpt>
      <trkpt lat="48.75225" lon="7.04304">
        <ele>331.4</ele>
        <time>2024-02-24T10:25:00Z</time>
      </trkpt>
      <trkpt lat="48.75225" lon="7.04315">
        <ele>331.5</ele>
        <time>2024-02-24T10:25:02Z</time>
      </trkpt>
      <trkpt lat="48.75224" lon="7.04331">
        <ele>331.6</ele>
        <time>2024-02-24T10:25:06Z</time>
      </trkpt>
      <trkpt lat="48.75226" lon="7.04335">
        <ele>331.6</ele>
        <time>2024-02-24T10:25:09Z</time>
      </trkpt>
      <trkpt lat="48.7523" lon="7.04348">
        <ele>331.6</ele>
        <time>2024-02-24T10:25:15Z</time>
      </trkpt>
      <trkpt lat="48.75229" lon="7.04351">
        <ele>331.6</ele>
        <time>2024-02-24T10:25:18Z</time>
      </trkpt>
      <trkpt lat="48.75223" lon="7.04351">
        <ele>331.7</ele>
        <time>2024-02-24T10:25:22Z</time>
      </trkpt>
      <trkpt lat="48.75215" lon="7.04347">
        <ele>331.8</ele>
        <time>2024-02-24T10:25:27Z</time>
      </trkpt>
      <trkpt lat="48.75196" lon="7.04364">
        <ele>331.9</ele>
        <time>2024-02-24T10:25:32Z</time>
      </trkpt>
      <trkpt lat="48.75181" lon="7.04384">
        <ele>332.6</ele>
        <time>2024-02-24T10:25:37Z</time>
      </trkpt>
      <trkpt lat="48.75164" lon="7.04398">
        <ele>333</ele>
        <time>2024-02-24T10:25:42Z</time>
      </trkpt>
      <trkpt lat="48.75147" lon="7.04383">
        <ele>333</ele>
        <time>2024-02-24T10:25:47Z</time>
      </trkpt>
      <trkpt lat="48.75134" lon="7.04364">
        <ele>332.6</ele>
        <time>2024-02-24T10:25:52Z</time>
      </trkpt>
      <trkpt lat="48.75119" lon="7.04345">
        <ele>332.4</ele>
        <time>2024-02-24T10:25:57Z</time>
      </trkpt>
      <trkpt lat="48.75104" lon="7.04325">
        <ele>332.2</ele>
        <time>2024-02-24T10:26:02Z</time>
      </trkpt>
      <trkpt lat="48.75089" lon="7.04307">
        <ele>331.5</ele>
        <time>2024-02-24T10:26:07Z</time>
      </trkpt>
      <trkpt lat="48.75076" lon="7.04287">
        <ele>330.9</ele>
        <time>2024-02-24T10:26:12Z</time>
      </trkpt>
      <trkpt lat="48.75061" lon="7.04266">
        <ele>329.7</ele>
        <time>2024-02-24T10:26:18Z</time>
      </trkpt>
      <trkpt lat="48.75046" lon="7.04251">
        <ele>328.5</ele>
        <time>2024-02-24T10:26:23Z</time>
      </trkpt>
      <trkpt lat="48.75033" lon="7.04234">
        <ele>327.5</ele>
        <time>2024-02-24T10:26:30Z</time>
      </trkpt>
      <trkpt lat="48.75023" lon="7.04228">
        <ele>327</ele>
        <time>2024-02-24T10:26:43Z</time>
      </trkpt>
      <trkpt lat="48.75016" lon="7.04218">
        <ele>326.3</ele>
        <time>2024-02-24T10:26:50Z</time>
      </trkpt>
      <trkpt lat="48.7502" lon="7.04222">
        <ele>326.6</ele>
        <time>2024-02-24T10:26:53Z</time>
      </trkpt>
      <trkpt lat="48.7502" lon="7.04228">
        <ele>326.9</ele>
        <time>2024-02-24T10:26:55Z</time>
      </trkpt>
      <trkpt lat="48.75017" lon="7.04253">
        <ele>326.9</ele>
        <time>2024-02-24T10:27:02Z</time>
      </trkpt>
      <trkpt lat="48.75022" lon="7.04258">
        <ele>327.2</ele>
        <time>2024-02-24T10:27:05Z</time>
      </trkpt>
      <trkpt lat="48.75027" lon="7.04256">
        <ele>327.4</ele>
        <time>2024-02-24T10:27:07Z</time>
      </trkpt>
      <trkpt lat="48.75029" lon="7.0425">
        <ele>327.6</ele>
        <time>2024-02-24T10:27:11Z</time>
      </trkpt>
      <trkpt lat="48.75039" lon="7.04229">
        <ele>327.6</ele>
        <time>2024-02-24T10:27:24Z</time>
      </trkpt>
      <trkpt lat="48.75025" lon="7.0421">
        <ele>326.3</ele>
        <time>2024-02-24T10:27:29Z</time>
      </trkpt>
      <trkpt lat="48.7501" lon="7.04194">
        <ele>325.3</ele>
        <time>2024-02-24T10:27:33Z</time>
      </trkpt>
      <trkpt lat="48.74995" lon="7.04178">
        <ele>324</ele>
        <time>2024-02-24T10:27:37Z</time>
      </trkpt>
      <trkpt lat="48.74981" lon="7.04162">
        <ele>322.4</ele>
        <time>2024-02-24T10:27:42Z</time>
      </trkpt>
      <trkpt lat="48.74971" lon="7.04137">
        <ele>321</ele>
        <time>2024-02-24T10:27:50Z</time>
      </trkpt>
      <trkpt lat="48.74968" lon="7.04108">
        <ele>320.3</ele>
        <time>2024-02-24T10:27:56Z</time>
      </trkpt>
      <trkpt lat="48.74972" lon="7.04077">
        <ele>320.5</ele>
        <time>2024-02-24T10:28:03Z</time>
      </trkpt>
      <trkpt lat="48.7497" lon="7.0405">
        <ele>320.2</ele>
        <time>2024-02-24T10:28:09Z</time>
      </trkpt>
      <trkpt lat="48.74968" lon="7.04023">
        <ele>320.3</ele>
        <time>2024-02-24T10:28:14Z</time>
      </trkpt>
      <trkpt lat="48.74952" lon="7.04002">
        <ele>320.3</ele>
        <time>2024-02-24T10:28:20Z</time>
      </trkpt>
      <trkpt lat="48.7494" lon="7.03983">
        <ele>320.2</ele>
        <time>2024-02-24T10:28:27Z</time>
      </trkpt>
      <trkpt lat="48.74937" lon="7.03978">
        <ele>320.3</ele>
        <time>2024-02-24T10:28:32Z</time>
      </trkpt>
      <trkpt lat="48.74952" lon="7.03957">
        <ele>321</ele>
        <time>2024-02-24T10:28:39Z</time>
      </trkpt>
      <trkpt lat="48.74962" lon="7.0393">
        <ele>321.6</ele>
        <time>2024-02-24T10:28:47Z</time>
      </trkpt>
      <trkpt lat="48.74976" lon="7.03904">
        <ele>322.8</ele>
        <time>2024-02-24T10:28:54Z</time>
      </trkpt>
      <trkpt lat="48.74985" lon="7.03889">
        <ele>323.1</ele>
        <time>2024-02-24T10:28:59Z</time>
      </trkpt>
      <trkpt lat="48.75004" lon="7.03876">
        <ele>323.2</ele>
        <time>2024-02-24T10:29:06Z</time>
      </trkpt>
      <trkpt lat="48.7502" lon="7.03858">
        <ele>323.2</ele>
        <time>2024-02-24T10:29:16Z</time>
      </trkpt>
      <trkpt lat="48.75035" lon="7.0384">
        <ele>322.9</ele>
        <time>2024-02-24T10:29:21Z</time>
      </trkpt>
      <trkpt lat="48.75053" lon="7.03825">
        <ele>321.8</ele>
        <time>2024-02-24T10:29:28Z</time>
      </trkpt>
      <trkpt lat="48.75068" lon="7.03804">
        <ele>321</ele>
        <time>2024-02-24T10:29:36Z</time>
      </trkpt>
      <trkpt lat="48.75088" lon="7.03791">
        <ele>319.9</ele>
        <time>2024-02-24T10:29:45Z</time>
      </trkpt>
      <trkpt lat="48.75099" lon="7.03779">
        <ele>319.4</ele>
        <time>2024-02-24T10:29:53Z</time>
      </trkpt>
      <trkpt lat="48.75097" lon="7.03809">
        <ele>319.8</ele>
        <time>2024-02-24T10:30:01Z</time>
      </trkpt>
      <trkpt lat="48.75104" lon="7.03836">
        <ele>320.5</ele>
        <time>2024-02-24T10:30:06Z</time>
      </trkpt>
      <trkpt lat="48.7511" lon="7.03863">
        <ele>321.2</ele>
        <time>2024-02-24T10:30:11Z</time>
      </trkpt>
      <trkpt lat="48.75115" lon="7.03892">
        <ele>321.9</ele>
        <time>2024-02-24T10:30:16Z</time>
      </trkpt>
      <trkpt lat="48.75122" lon="7.03922">
        <ele>322.5</ele>
        <time>2024-02-24T10:30:21Z</time>
      </trkpt>
      <trkpt lat="48.75118" lon="7.03944">
        <ele>322.8</ele>
        <time>2024-02-24T10:30:25Z</time>
      </trkpt>
      <trkpt lat="48.751" lon="7.03963">
        <ele>322.4</ele>
        <time>2024-02-24T10:30:30Z</time>
      </trkpt>
      <trkpt lat="48.75084" lon="7.03983">
        <ele>322.7</ele>
        <time>2024-02-24T10:30:35Z</time>
      </trkpt>
      <trkpt lat="48.75067" lon="7.04004">
        <ele>322.9</ele>
        <time>2024-02-24T10:30:40Z</time>
      </trkpt>
      <trkpt lat="48.75054" lon="7.04029">
        <ele>322.5</ele>
        <time>2024-02-24T10:30:45Z</time>
      </trkpt>
      <trkpt lat="48.75053" lon="7.04045">
        <ele>322.7</ele>
        <time>2024-02-24T10:30:48Z</time>
      </trkpt>
      <trkpt lat="48.75066" lon="7.04068">
        <ele>323.6</ele>
        <time>2024-02-24T10:30:53Z</time>
      </trkpt>
      <trkpt lat="48.75082" lon="7.04089">
        <ele>324.6</ele>
        <time>2024-02-24T10:30:58Z</time>
      </trkpt>
      <trkpt lat="48.75099" lon="7.0411">
        <ele>325.5</ele>
        <time>2024-02-24T10:31:03Z</time>
      </trkpt>
      <trkpt lat="48.7511" lon="7.04132">
        <ele>326.3</ele>
        <time>2024-02-24T10:31:08Z</time>
      </trkpt>
      <trkpt lat="48.75104" lon="7.04154">
        <ele>325.6</ele>
        <time>2024-02-24T10:31:14Z</time>
      </trkpt>
      <trkpt lat="48.75104" lon="7.04154">
        <ele>325.6</ele>
        <time>2024-02-24T10:39:02Z</time>
      </trkpt>
      <trkpt lat="48.75052" lon="7.04094">
        <ele>321.9</ele>
        <time>2024-02-24T10:39:15Z</time>
      </trkpt>
      <trkpt lat="48.75037" lon="7.04076">
        <ele>320.6</ele>
        <time>2024-02-24T10:39:22Z</time>
      </trkpt>
      <trkpt lat="48.75023" lon="7.04058">
        <ele>319.3</ele>
        <time>2024-02-24T10:39:28Z</time>
      </trkpt>
      <trkpt lat="48.75011" lon="7.04048">
        <ele>318.3</ele>
        <time>2024-02-24T10:39:36Z</time>
      </trkpt>
      <trkpt lat="48.74998" lon="7.04041">
        <ele>317.7</ele>
        <time>2024-02-24T10:40:04Z</time>
      </trkpt>
      <trkpt lat="48.74982" lon="7.04027">
        <ele>317.6</ele>
        <time>2024-02-24T10:40:12Z</time>
      </trkpt>
      <trkpt lat="48.74968" lon="7.04007">
        <ele>317.6</ele>
        <time>2024-02-24T10:40:21Z</time>
      </trkpt>
      <trkpt lat="48.7496" lon="7.03982">
        <ele>317.5</ele>
        <time>2024-02-24T10:40:28Z</time>
      </trkpt>
      <trkpt lat="48.74949" lon="7.03956">
        <ele>317.4</ele>
        <time>2024-02-24T10:40:36Z</time>
      </trkpt>
      <trkpt lat="48.74938" lon="7.03935">
        <ele>317.3</ele>
        <time>2024-02-24T10:40:46Z</time>
      </trkpt>
      <trkpt lat="48.74939" lon="7.03957">
        <ele>317.2</ele>
        <time>2024-02-24T10:41:17Z</time>
      </trkpt>
      <trkpt lat="48.74935" lon="7.03961">
        <ele>317.2</ele>
        <time>2024-02-24T10:41:24Z</time>
      </trkpt>
      <trkpt lat="48.74934" lon="7.03961">
        <ele>317.2</ele>
        <time>2024-02-24T10:41:26Z</time>
      </trkpt>
      <trkpt lat="48.74933" lon="7.03957">
        <ele>317.2</ele>
        <time>2024-02-24T10:42:14Z</time>
      </trkpt>
      <trkpt lat="48.74935" lon="7.03954">
        <ele>317.2</ele>
        <time>2024-02-24T10:42:16Z</time>
      </trkpt>
      <trkpt lat="48.74937" lon="7.03952">
        <ele>317.2</ele>
        <time>2024-02-24T10:42:18Z</time>
      </trkpt>
      <trkpt lat="48.74942" lon="7.03927">
        <ele>317.2</ele>
        <time>2024-02-24T10:42:31Z</time>
      </trkpt>
      <trkpt lat="48.7493" lon="7.03902">
        <ele>317.2</ele>
        <time>2024-02-24T10:42:38Z</time>
      </trkpt>
      <trkpt lat="48.74919" lon="7.03877">
        <ele>317.1</ele>
        <time>2024-02-24T10:42:45Z</time>
      </trkpt>
      <trkpt lat="48.74909" lon="7.03853">
        <ele>316.9</ele>
        <time>2024-02-24T10:42:51Z</time>
      </trkpt>
      <trkpt lat="48.749" lon="7.03829">
        <ele>316.7</ele>
        <time>2024-02-24T10:42:57Z</time>
      </trkpt>
      <trkpt lat="48.74893" lon="7.03804">
        <ele>316.5</ele>
        <time>2024-02-24T10:43:03Z</time>
      </trkpt>
      <trkpt lat="48.74887" lon="7.0378">
        <ele>316.4</ele>
        <time>2024-02-24T10:43:13Z</time>
      </trkpt>
      <trkpt lat="48.74882" lon="7.03763">
        <ele>316.3</ele>
        <time>2024-02-24T10:43:28Z</time>
      </trkpt>
      <trkpt lat="48.7488" lon="7.03749">
        <ele>316.2</ele>
        <time>2024-02-24T10:43:37Z</time>
      </trkpt>
      <trkpt lat="48.74879" lon="7.03748">
        <ele>316.2</ele>
        <time>2024-02-24T10:43:40Z</time>
      </trkpt>
      <trkpt lat="48.74879" lon="7.03737">
        <ele>316.2</ele>
        <time>2024-02-24T10:43:55Z</time>
      </trkpt>
      <trkpt lat="48.74874" lon="7.03717">
        <ele>316.1</ele>
        <time>2024-02-24T10:44:05Z</time>
      </trkpt>
      <trkpt lat="48.74873" lon="7.03714">
        <ele>316.1</ele>
        <time>2024-02-24T10:44:31Z</time>
      </trkpt>
      <trkpt lat="48.74892" lon="7.0371">
        <ele>316.1</ele>
        <time>2024-02-24T10:44:42Z</time>
      </trkpt>
      <trkpt lat="48.7491" lon="7.03707">
        <ele>315.8</ele>
        <time>2024-02-24T10:44:52Z</time>
      </trkpt>
      <trkpt lat="48.74915" lon="7.03705">
        <ele>315.3</ele>
        <time>2024-02-24T10:44:57Z</time>
      </trkpt>
      <trkpt lat="48.74919" lon="7.03707">
        <ele>314.7</ele>
        <time>2024-02-24T10:45:00Z</time>
      </trkpt>
      <trkpt lat="48.74922" lon="7.03709">
        <ele>314.3</ele>
        <time>2024-02-24T10:45:04Z</time>
      </trkpt>
      <trkpt lat="48.74922" lon="7.0371">
        <ele>313.7</ele>
        <time>2024-02-24T10:45:06Z</time>
      </trkpt>
      <trkpt lat="48.74927" lon="7.03697">
        <ele>312.4</ele>
        <time>2024-02-24T10:46:19Z</time>
      </trkpt>
      <trkpt lat="48.74947" lon="7.03699">
        <ele>311.8</ele>
        <time>2024-02-24T10:46:29Z</time>
      </trkpt>
      <trkpt lat="48.74967" lon="7.03706">
        <ele>311.2</ele>
        <time>2024-02-24T10:46:37Z</time>
      </trkpt>
      <trkpt lat="48.74985" lon="7.0371">
        <ele>310.8</ele>
        <time>2024-02-24T10:46:47Z</time>
      </trkpt>
      <trkpt lat="48.75003" lon="7.03711">
        <ele>310.4</ele>
        <time>2024-02-24T10:46:57Z</time>
      </trkpt>
      <trkpt lat="48.75022" lon="7.03713">
        <ele>309.9</ele>
        <time>2024-02-24T10:47:06Z</time>
      </trkpt>
      <trkpt lat="48.75026" lon="7.03715">
        <ele>309.8</ele>
        <time>2024-02-24T10:47:09Z</time>
      </trkpt>
      <trkpt lat="48.75026" lon="7.03717">
        <ele>309.7</ele>
        <time>2024-02-24T10:47:21Z</time>
      </trkpt>
      <trkpt lat="48.75041" lon="7.03724">
        <ele>309.4</ele>
        <time>2024-02-24T10:47:33Z</time>
      </trkpt>
      <trkpt lat="48.75045" lon="7.03727">
        <ele>309.3</ele>
        <time>2024-02-24T10:47:43Z</time>
      </trkpt>
      <trkpt lat="48.75062" lon="7.03736">
        <ele>308.9</ele>
        <time>2024-02-24T10:47:52Z</time>
      </trkpt>
      <trkpt lat="48.75063" lon="7.03737">
        <ele>308.9</ele>
        <time>2024-02-24T10:47:53Z</time>
      </trkpt>
      <trkpt lat="48.75079" lon="7.03744">
        <ele>308.6</ele>
        <time>2024-02-24T10:48:08Z</time>
      </trkpt>
      <trkpt lat="48.75098" lon="7.03747">
        <ele>308.2</ele>
        <time>2024-02-24T10:48:19Z</time>
      </trkpt>
      <trkpt lat="48.75105" lon="7.03749">
        <ele>308.1</ele>
        <time>2024-02-24T10:48:24Z</time>
      </trkpt>
      <trkpt lat="48.75115" lon="7.03747">
        <ele>307.8</ele>
        <time>2024-02-24T10:49:43Z</time>
      </trkpt>
      <trkpt lat="48.7511" lon="7.03746">
        <ele>308.3</ele>
        <time>2024-02-24T10:49:51Z</time>
      </trkpt>
      <trkpt lat="48.75098" lon="7.0375">
        <ele>309.3</ele>
        <time>2024-02-24T10:50:03Z</time>
      </trkpt>
      <trkpt lat="48.75097" lon="7.0375">
        <ele>309.6</ele>
        <time>2024-02-24T10:50:05Z</time>
      </trkpt>
      <trkpt lat="48.75096" lon="7.0375">
        <ele>309.9</ele>
        <time>2024-02-24T10:50:27Z</time>
      </trkpt>
      <trkpt lat="48.75094" lon="7.0375">
        <ele>310.3</ele>
        <time>2024-02-24T10:50:28Z</time>
      </trkpt>
      <trkpt lat="48.75085" lon="7.03757">
        <ele>311</ele>
        <time>2024-02-24T10:50:34Z</time>
      </trkpt>
      <trkpt lat="48.75082" lon="7.03779">
        <ele>311.4</ele>
        <time>2024-02-24T10:50:49Z</time>
      </trkpt>
      <trkpt lat="48.75081" lon="7.0378">
        <ele>311.8</ele>
        <time>2024-02-24T10:50:51Z</time>
      </trkpt>
      <trkpt lat="48.75078" lon="7.03776">
        <ele>312.3</ele>
        <time>2024-02-24T10:51:09Z</time>
      </trkpt>
      <trkpt lat="48.75079" lon="7.03778">
        <ele>312.4</ele>
        <time>2024-02-24T10:51:13Z</time>
      </trkpt>
      <trkpt lat="48.75085" lon="7.03782">
        <ele>312.4</ele>
        <time>2024-02-24T10:51:20Z</time>
      </trkpt>
      <trkpt lat="48.75087" lon="7.03787">
        <ele>312.5</ele>
        <time>2024-02-24T10:51:23Z</time>
      </trkpt>
      <trkpt lat="48.75089" lon="7.03789">
        <ele>312.8</ele>
        <time>2024-02-24T10:51:25Z</time>
      </trkpt>
      <trkpt lat="48.75089" lon="7.03791">
        <ele>313.1</ele>
        <time>2024-02-24T10:51:33Z</time>
      </trkpt>
      <trkpt lat="48.75103" lon="7.03792">
        <ele>312.8</ele>
        <time>2024-02-24T10:51:54Z</time>
      </trkpt>
      <trkpt lat="48.75103" lon="7.03789">
        <ele>313.1</ele>
        <time>2024-02-24T10:51:57Z</time>
      </trkpt>
      <trkpt lat="48.75101" lon="7.03787">
        <ele>313.5</ele>
        <time>2024-02-24T10:53:37Z</time>
      </trkpt>
      <trkpt lat="48.75093" lon="7.0381">
        <ele>314.4</ele>
        <time>2024-02-24T10:53:56Z</time>
      </trkpt>
      <trkpt lat="48.75099" lon="7.03839">
        <ele>315.3</ele>
        <time>2024-02-24T10:54:05Z</time>
      </trkpt>
      <trkpt lat="48.75103" lon="7.03866">
        <ele>316.2</ele>
        <time>2024-02-24T10:54:13Z</time>
      </trkpt>
      <trkpt lat="48.75108" lon="7.03894">
        <ele>317.1</ele>
        <time>2024-02-24T10:54:23Z</time>
      </trkpt>
      <trkpt lat="48.75114" lon="7.03922">
        <ele>318</ele>
        <time>2024-02-24T10:54:31Z</time>
      </trkpt>
      <trkpt lat="48.75114" lon="7.03934">
        <ele>318.4</ele>
        <time>2024-02-24T10:54:37Z</time>
      </trkpt>
      <trkpt lat="48.75109" lon="7.03944">
        <ele>318.7</ele>
        <time>2024-02-24T10:54:51Z</time>
      </trkpt>
      <trkpt lat="48.75096" lon="7.03967">
        <ele>318.7</ele>
        <time>2024-02-24T10:55:00Z</time>
      </trkpt>
      <trkpt lat="48.75083" lon="7.03988">
        <ele>318.7</ele>
        <time>2024-02-24T10:55:15Z</time>
      </trkpt>
      <trkpt lat="48.7508" lon="7.03995">
        <ele>318.9</ele>
        <time>2024-02-24T10:55:20Z</time>
      </trkpt>
      <trkpt lat="48.75079" lon="7.03999">
        <ele>319.3</ele>
        <time>2024-02-24T10:55:25Z</time>
      </trkpt>
      <trkpt lat="48.75078" lon="7.03998">
        <ele>319.5</ele>
        <time>2024-02-24T10:55:28Z</time>
      </trkpt>
      <trkpt lat="48.75078" lon="7.03998">
        <ele>319.8</ele>
        <time>2024-02-24T10:55:30Z</time>
      </trkpt>
      <trkpt lat="48.75087" lon="7.04009">
        <ele>320.4</ele>
        <time>2024-02-24T10:55:53Z</time>
      </trkpt>
      <trkpt lat="48.75088" lon="7.04014">
        <ele>320.8</ele>
        <time>2024-02-24T10:56:13Z</time>
      </trkpt>
      <trkpt lat="48.75097" lon="7.04018">
        <ele>321.4</ele>
        <time>2024-02-24T10:56:33Z</time>
      </trkpt>
      <trkpt lat="48.75116" lon="7.03991">
        <ele>322</ele>
        <time>2024-02-24T10:58:26Z</time>
      </trkpt>
      <trkpt lat="48.75129" lon="7.03971">
        <ele>322.6</ele>
        <time>2024-02-24T10:58:57Z</time>
      </trkpt>
      <trkpt lat="48.75143" lon="7.03988">
        <ele>323.1</ele>
        <time>2024-02-24T10:59:27Z</time>
      </trkpt>
      <trkpt lat="48.75156" lon="7.04008">
        <ele>323.6</ele>
        <time>2024-02-24T10:59:36Z</time>
      </trkpt>
      <trkpt lat="48.75168" lon="7.04028">
        <ele>324.2</ele>
        <time>2024-02-24T10:59:47Z</time>
      </trkpt>
      <trkpt lat="48.7517" lon="7.04032">
        <ele>324.6</ele>
        <time>2024-02-24T10:59:51Z</time>
      </trkpt>
      <trkpt lat="48.75172" lon="7.04037">
        <ele>325</ele>
        <time>2024-02-24T11:00:00Z</time>
      </trkpt>
      <trkpt lat="48.75159" lon="7.04059">
        <ele>325.9</ele>
        <time>2024-02-24T11:00:08Z</time>
      </trkpt>
      <trkpt lat="48.75147" lon="7.04084">
        <ele>326.2</ele>
        <time>2024-02-24T11:00:14Z</time>
      </trkpt>
      <trkpt lat="48.75134" lon="7.04105">
        <ele>326.4</ele>
        <time>2024-02-24T11:00:20Z</time>
      </trkpt>
      <trkpt lat="48.75119" lon="7.04125">
        <ele>326.4</ele>
        <time>2024-02-24T11:00:26Z</time>
      </trkpt>
      <trkpt lat="48.75105" lon="7.04146">
        <ele>326.2</ele>
        <time>2024-02-24T11:00:32Z</time>
      </trkpt>
      <trkpt lat="48.751" lon="7.04153">
        <ele>325.9</ele>
        <time>2024-02-24T11:00:35Z</time>
      </trkpt>
    </trkseg>
  </trk>
</gpx>